Aviation Digital Data Service (ADDS)

Output produced by METARs form (2313 UTC 18 August 2019)
found at http://www.aviationweather.gov/metar/data/
 
Forecast for: HAAB (ADDIS ABABA/BOLE, ET)
Text: TAF HAAB 182130Z 1822/2004 34006KT 9999 BKN024 BKN080
Forecast period: 2200 UTC 18 August 2019 to 0400 UTC 19 August 2019
Forecast type: FROM: standard forecast or significant change
Winds: from the NNW (340 degrees) at 7 MPH (6 knots; 3.1 m/s)
Visibility: 6 or more miles 10+ km)
Ceiling: 2400 feet AGL
Clouds: broken clouds at 2400 feet AGL
broken clouds at 8000 feet AGL
Weather: no significant weather forecast for this period
Text: BECMG 1904/1907 24005KT 8000 -SHRA BKN022
Forecast period: 0400 to 1000 UTC 19 August 2019
Forecast type: BECOMING: Conditions expected to become as follows by 0700 UTC 19 August 2019
Winds: from the WSW (240 degrees) at 6 MPH (5 knots; 2.6 m/s)
Visibility: 5 miles (8 km)
Ceiling: 2200 feet AGL
Clouds: broken clouds at 2200 feet AGL
Weather: -SHRA  (light rain showers)
Text: BECMG 1910/1917 36004KT 9000 SHRA BKN030
Forecast period: 1000 UTC 19 August 2019 to 0400 UTC 20 August 2019
Forecast type: BECOMING: Conditions expected to become as follows by 1700 UTC 19 August 2019
Winds: from the N (360 degrees) at 5 MPH (4 knots; 2.1 m/s)
Visibility: 6 miles (9 km)
Ceiling: 3000 feet AGL
Clouds: broken clouds at 3000 feet AGL
Weather: SHRA  (rain showers)